sensor_id;sensor_type;location;lat;lon;timestamp;P1;durP1;ratioP1;P2;durP2;ratioP2
6723;SDS011;3399;52.530;13.304;2022-10-16T00:01:14;8.50;;;4.00;;
6723;SDS011;3399;52.530;13.304;2022-10-16T00:03:41;4.50;;;2.90;;
6723;SDS011;3399;52.530;13.304;2022-10-16T00:06:08;1.93;;;1.83;;
6723;SDS011;3399;52.530;13.304;2022-10-16T00:08:35;1.93;;;1.77;;
6723;SDS011;3399;52.530;13.304;2022-10-16T00:11:03;2.43;;;2.20;;
6723;SDS011;3399;52.530;13.304;2022-10-16T00:13:50;1.80;;;1.70;;
6723;SDS011;3399;52.530;13.304;2022-10-16T00:16:17;1.70;;;1.60;;
6723;SDS011;3399;52.530;13.304;2022-10-16T00:18:43;2.73;;;2.20;;
6723;SDS011;3399;52.530;13.304;2022-10-16T00:21:13;2.07;;;1.90;;
6723;SDS011;3399;52.530;13.304;2022-10-16T00:23:50;4.33;;;2.07;;
6723;SDS011;3399;52.530;13.304;2022-10-16T00:26:16;2.60;;;2.40;;
6723;SDS011;3399;52.530;13.304;2022-10-16T00:28:44;2.30;;;2.20;;
6723;SDS011;3399;52.530;13.304;2022-10-16T00:31:14;1.87;;;1.67;;
6723;SDS011;3399;52.530;13.304;2022-10-16T00:33:40;2.43;;;2.10;;
6723;SDS011;3399;52.530;13.304;2022-10-16T00:36:08;4.80;;;1.73;;
6723;SDS011;3399;52.530;13.304;2022-10-16T00:38:36;4.10;;;2.00;;
6723;SDS011;3399;52.530;13.304;2022-10-16T00:41:02;2.20;;;2.10;;
6723;SDS011;3399;52.530;13.304;2022-10-16T00:43:42;2.30;;;1.70;;
6723;SDS011;3399;52.530;13.304;2022-10-16T00:48:37;1.53;;;1.43;;
6723;SDS011;3399;52.530;13.304;2022-10-16T00:51:03;1.77;;;1.67;;
6723;SDS011;3399;52.530;13.304;2022-10-16T00:53:30;2.33;;;2.13;;
6723;SDS011;3399;52.530;13.304;2022-10-16T00:55:57;1.63;;;1.53;;
6723;SDS011;3399;52.530;13.304;2022-10-16T00:58:22;1.83;;;1.73;;
6723;SDS011;3399;52.530;13.304;2022-10-16T01:00:48;2.37;;;1.80;;
6723;SDS011;3399;52.530;13.304;2022-10-16T01:03:29;1.97;;;1.87;;
6723;SDS011;3399;52.530;13.304;2022-10-16T01:06:04;1.87;;;1.77;;
6723;SDS011;3399;52.530;13.304;2022-10-16T01:09:02;1.80;;;1.70;;
6723;SDS011;3399;52.530;13.304;2022-10-16T01:11:43;2.70;;;1.80;;
6723;SDS011;3399;52.530;13.304;2022-10-16T01:17:12;2.43;;;1.67;;
6723;SDS011;3399;52.530;13.304;2022-10-16T01:22:28;1.80;;;1.70;;
6723;SDS011;3399;52.530;13.304;2022-10-16T01:28:17;3.70;;;2.60;;
6723;SDS011;3399;52.530;13.304;2022-10-16T01:30:45;2.10;;;1.90;;
6723;SDS011;3399;52.530;13.304;2022-10-16T01:33:17;2.30;;;1.80;;
6723;SDS011;3399;52.530;13.304;2022-10-16T01:36:02;1.77;;;1.67;;
6723;SDS011;3399;52.530;13.304;2022-10-16T01:38:36;1.83;;;1.73;;
6723;SDS011;3399;52.530;13.304;2022-10-16T01:41:06;1.87;;;1.77;;
6723;SDS011;3399;52.530;13.304;2022-10-16T01:43:36;1.50;;;1.40;;
6723;SDS011;3399;52.530;13.304;2022-10-16T01:46:05;1.80;;;1.70;;
6723;SDS011;3399;52.530;13.304;2022-10-16T01:48:32;2.40;;;2.20;;
6723;SDS011;3399;52.530;13.304;2022-10-16T01:51:05;2.20;;;1.73;;
6723;SDS011;3399;52.530;13.304;2022-10-16T01:53:33;2.00;;;1.63;;
6723;SDS011;3399;52.530;13.304;2022-10-16T01:56:00;1.40;;;1.30;;
6723;SDS011;3399;52.530;13.304;2022-10-16T01:58:28;3.67;;;1.70;;
6723;SDS011;3399;52.530;13.304;2022-10-16T02:00:59;1.80;;;1.70;;
6723;SDS011;3399;52.530;13.304;2022-10-16T02:03:26;4.23;;;1.70;;
6723;SDS011;3399;52.530;13.304;2022-10-16T02:05:55;2.73;;;1.67;;
6723;SDS011;3399;52.530;13.304;2022-10-16T02:08:23;1.60;;;1.50;;
6723;SDS011;3399;52.530;13.304;2022-10-16T02:10:50;2.20;;;2.03;;
6723;SDS011;3399;52.530;13.304;2022-10-16T02:13:23;1.70;;;1.43;;
6723;SDS011;3399;52.530;13.304;2022-10-16T02:16:10;1.77;;;1.50;;
6723;SDS011;3399;52.530;13.304;2022-10-16T02:18:36;1.50;;;1.40;;
6723;SDS011;3399;52.530;13.304;2022-10-16T02:21:03;2.33;;;1.40;;
6723;SDS011;3399;52.530;13.304;2022-10-16T02:23:54;2.33;;;2.13;;
6723;SDS011;3399;52.530;13.304;2022-10-16T02:29:48;1.67;;;1.57;;
6723;SDS011;3399;52.530;13.304;2022-10-16T02:32:19;3.47;;;2.00;;
6723;SDS011;3399;52.530;13.304;2022-10-16T02:34:48;1.80;;;1.70;;
6723;SDS011;3399;52.530;13.304;2022-10-16T02:37:15;2.53;;;1.57;;
6723;SDS011;3399;52.530;13.304;2022-10-16T02:39:42;1.80;;;1.70;;
6723;SDS011;3399;52.530;13.304;2022-10-16T02:42:12;1.83;;;1.73;;
6723;SDS011;3399;52.530;13.304;2022-10-16T02:44:38;1.60;;;1.50;;
6723;SDS011;3399;52.530;13.304;2022-10-16T02:47:04;2.57;;;1.80;;
6723;SDS011;3399;52.530;13.304;2022-10-16T02:49:29;1.27;;;1.23;;
6723;SDS011;3399;52.530;13.304;2022-10-16T02:51:55;1.70;;;1.60;;
6723;SDS011;3399;52.530;13.304;2022-10-16T02:54:20;3.17;;;1.40;;
6723;SDS011;3399;52.530;13.304;2022-10-16T02:56:46;1.47;;;1.37;;
6723;SDS011;3399;52.530;13.304;2022-10-16T02:59:11;2.40;;;1.70;;
6723;SDS011;3399;52.530;13.304;2022-10-16T03:01:37;2.17;;;1.87;;
6723;SDS011;3399;52.530;13.304;2022-10-16T03:04:02;3.00;;;1.53;;
6723;SDS011;3399;52.530;13.304;2022-10-16T03:06:28;1.60;;;1.50;;
6723;SDS011;3399;52.530;13.304;2022-10-16T03:08:53;2.60;;;1.33;;
6723;SDS011;3399;52.530;13.304;2022-10-16T03:11:19;1.10;;;1.10;;
6723;SDS011;3399;52.530;13.304;2022-10-16T03:13:44;3.40;;;1.53;;
6723;SDS011;3399;52.530;13.304;2022-10-16T03:16:09;1.73;;;1.63;;
6723;SDS011;3399;52.530;13.304;2022-10-16T03:18:35;1.77;;;1.23;;
6723;SDS011;3399;52.530;13.304;2022-10-16T03:21:00;1.73;;;1.63;;
6723;SDS011;3399;52.530;13.304;2022-10-16T03:23:26;2.13;;;1.97;;
6723;SDS011;3399;52.530;13.304;2022-10-16T03:25:51;1.63;;;1.53;;
6723;SDS011;3399;52.530;13.304;2022-10-16T03:28:17;1.47;;;1.37;;
6723;SDS011;3399;52.530;13.304;2022-10-16T03:30:43;1.57;;;1.47;;
6723;SDS011;3399;52.530;13.304;2022-10-16T03:33:09;1.67;;;1.57;;
6723;SDS011;3399;52.530;13.304;2022-10-16T03:35:34;2.23;;;2.10;;
6723;SDS011;3399;52.530;13.304;2022-10-16T03:38:00;2.30;;;1.70;;
6723;SDS011;3399;52.530;13.304;2022-10-16T03:40:26;2.27;;;1.47;;
6723;SDS011;3399;52.530;13.304;2022-10-16T03:42:52;2.00;;;1.87;;
6723;SDS011;3399;52.530;13.304;2022-10-16T03:45:20;1.77;;;1.53;;
6723;SDS011;3399;52.530;13.304;2022-10-16T03:47:45;1.70;;;1.60;;
6723;SDS011;3399;52.530;13.304;2022-10-16T03:50:11;3.80;;;1.83;;
6723;SDS011;3399;52.530;13.304;2022-10-16T03:52:36;2.40;;;2.10;;
6723;SDS011;3399;52.530;13.304;2022-10-16T03:55:02;1.80;;;1.70;;
6723;SDS011;3399;52.530;13.304;2022-10-16T03:57:28;1.80;;;1.70;;
6723;SDS011;3399;52.530;13.304;2022-10-16T03:59:53;2.10;;;1.90;;
6723;SDS011;3399;52.530;13.304;2022-10-16T04:02:18;1.80;;;1.70;;
6723;SDS011;3399;52.530;13.304;2022-10-16T04:04:44;1.57;;;1.47;;
6723;SDS011;3399;52.530;13.304;2022-10-16T04:07:09;2.30;;;2.00;;
6723;SDS011;3399;52.530;13.304;2022-10-16T04:09:35;1.60;;;1.50;;
6723;SDS011;3399;52.530;13.304;2022-10-16T04:12:00;1.90;;;1.80;;
6723;SDS011;3399;52.530;13.304;2022-10-16T04:14:26;1.47;;;1.37;;
6723;SDS011;3399;52.530;13.304;2022-10-16T04:16:51;1.70;;;1.60;;
6723;SDS011;3399;52.530;13.304;2022-10-16T04:19:17;1.73;;;1.63;;
6723;SDS011;3399;52.530;13.304;2022-10-16T04:21:42;2.47;;;1.97;;
6723;SDS011;3399;52.530;13.304;2022-10-16T04:24:08;2.20;;;2.00;;
6723;SDS011;3399;52.530;13.304;2022-10-16T04:26:33;2.23;;;2.00;;
6723;SDS011;3399;52.530;13.304;2022-10-16T04:28:58;2.83;;;1.80;;
6723;SDS011;3399;52.530;13.304;2022-10-16T04:31:24;2.87;;;2.00;;
6723;SDS011;3399;52.530;13.304;2022-10-16T04:33:49;1.97;;;1.87;;
6723;SDS011;3399;52.530;13.304;2022-10-16T04:36:15;1.50;;;1.40;;
6723;SDS011;3399;52.530;13.304;2022-10-16T04:38:40;2.07;;;1.97;;
6723;SDS011;3399;52.530;13.304;2022-10-16T04:41:06;1.80;;;1.70;;
6723;SDS011;3399;52.530;13.304;2022-10-16T04:43:32;1.60;;;1.50;;
6723;SDS011;3399;52.530;13.304;2022-10-16T04:45:58;2.13;;;2.00;;
6723;SDS011;3399;52.530;13.304;2022-10-16T04:48:24;2.00;;;1.90;;
6723;SDS011;3399;52.530;13.304;2022-10-16T04:50:50;1.73;;;1.50;;
6723;SDS011;3399;52.530;13.304;2022-10-16T04:53:15;1.80;;;1.60;;
6723;SDS011;3399;52.530;13.304;2022-10-16T04:55:41;2.00;;;1.90;;
6723;SDS011;3399;52.530;13.304;2022-10-16T04:58:07;1.83;;;1.73;;
6723;SDS011;3399;52.530;13.304;2022-10-16T05:00:33;2.43;;;1.67;;
6723;SDS011;3399;52.530;13.304;2022-10-16T05:02:59;2.17;;;2.07;;
6723;SDS011;3399;52.530;13.304;2022-10-16T05:05:26;2.50;;;2.20;;
6723;SDS011;3399;52.530;13.304;2022-10-16T05:07:52;2.27;;;2.17;;
6723;SDS011;3399;52.530;13.304;2022-10-16T05:10:18;1.70;;;1.60;;
6723;SDS011;3399;52.530;13.304;2022-10-16T05:12:43;1.87;;;1.77;;
6723;SDS011;3399;52.530;13.304;2022-10-16T05:15:10;2.80;;;1.77;;
6723;SDS011;3399;52.530;13.304;2022-10-16T05:17:38;1.97;;;1.70;;
6723;SDS011;3399;52.530;13.304;2022-10-16T05:20:03;4.47;;;2.27;;
6723;SDS011;3399;52.530;13.304;2022-10-16T05:22:29;2.70;;;2.50;;
6723;SDS011;3399;52.530;13.304;2022-10-16T05:24:55;1.73;;;1.63;;
6723;SDS011;3399;52.530;13.304;2022-10-16T05:27:21;2.53;;;2.33;;
6723;SDS011;3399;52.530;13.304;2022-10-16T05:29:47;2.50;;;1.87;;
6723;SDS011;3399;52.530;13.304;2022-10-16T05:32:14;2.20;;;2.10;;
6723;SDS011;3399;52.530;13.304;2022-10-16T05:34:40;1.83;;;1.73;;
6723;SDS011;3399;52.530;13.304;2022-10-16T05:37:07;2.30;;;1.80;;
6723;SDS011;3399;52.530;13.304;2022-10-16T05:39:32;1.80;;;1.70;;
6723;SDS011;3399;52.530;13.304;2022-10-16T05:41:58;2.10;;;1.97;;
6723;SDS011;3399;52.530;13.304;2022-10-16T05:44:23;3.27;;;2.10;;
6723;SDS011;3399;52.530;13.304;2022-10-16T05:46:49;2.00;;;1.90;;
6723;SDS011;3399;52.530;13.304;2022-10-16T05:49:14;1.97;;;1.87;;
6723;SDS011;3399;52.530;13.304;2022-10-16T05:51:40;3.27;;;2.37;;
6723;SDS011;3399;52.530;13.304;2022-10-16T05:54:06;1.90;;;1.80;;
6723;SDS011;3399;52.530;13.304;2022-10-16T05:56:32;2.03;;;1.80;;
6723;SDS011;3399;52.530;13.304;2022-10-16T05:58:57;4.10;;;2.33;;
6723;SDS011;3399;52.530;13.304;2022-10-16T06:01:22;1.83;;;1.60;;
6723;SDS011;3399;52.530;13.304;2022-10-16T06:03:49;1.70;;;1.60;;
6723;SDS011;3399;52.530;13.304;2022-10-16T06:06:19;2.67;;;1.80;;
6723;SDS011;3399;52.530;13.304;2022-10-16T06:08:47;1.90;;;1.80;;
6723;SDS011;3399;52.530;13.304;2022-10-16T06:11:18;1.57;;;1.47;;
6723;SDS011;3399;52.530;13.304;2022-10-16T06:13:44;3.37;;;2.27;;
6723;SDS011;3399;52.530;13.304;2022-10-16T06:16:13;1.83;;;1.67;;
6723;SDS011;3399;52.530;13.304;2022-10-16T06:18:39;2.00;;;1.90;;
6723;SDS011;3399;52.530;13.304;2022-10-16T06:21:11;2.80;;;2.17;;
6723;SDS011;3399;52.530;13.304;2022-10-16T06:23:49;2.60;;;1.80;;
6723;SDS011;3399;52.530;13.304;2022-10-16T06:26:16;3.07;;;1.97;;
6723;SDS011;3399;52.530;13.304;2022-10-16T06:28:43;2.93;;;1.77;;
6723;SDS011;3399;52.530;13.304;2022-10-16T06:31:09;1.80;;;1.60;;
6723;SDS011;3399;52.530;13.304;2022-10-16T06:33:36;1.90;;;1.80;;
6723;SDS011;3399;52.530;13.304;2022-10-16T06:36:04;2.50;;;2.23;;
6723;SDS011;3399;52.530;13.304;2022-10-16T06:38:32;2.83;;;2.00;;
6723;SDS011;3399;52.530;13.304;2022-10-16T06:40:58;2.40;;;2.20;;
6723;SDS011;3399;52.530;13.304;2022-10-16T06:43:23;2.20;;;2.10;;
6723;SDS011;3399;52.530;13.304;2022-10-16T06:45:53;2.57;;;2.30;;
6723;SDS011;3399;52.530;13.304;2022-10-16T06:48:22;2.30;;;2.20;;
6723;SDS011;3399;52.530;13.304;2022-10-16T06:50:55;2.23;;;1.83;;
6723;SDS011;3399;52.530;13.304;2022-10-16T06:53:35;2.50;;;2.30;;
6723;SDS011;3399;52.530;13.304;2022-10-16T06:56:14;4.43;;;2.20;;
6723;SDS011;3399;52.530;13.304;2022-10-16T06:58:47;2.47;;;2.27;;
6723;SDS011;3399;52.530;13.304;2022-10-16T07:01:13;3.10;;;1.93;;
6723;SDS011;3399;52.530;13.304;2022-10-16T07:03:40;2.07;;;1.87;;
6723;SDS011;3399;52.530;13.304;2022-10-16T07:06:08;2.00;;;1.90;;
6723;SDS011;3399;52.530;13.304;2022-10-16T07:08:35;1.80;;;1.70;;
6723;SDS011;3399;52.530;13.304;2022-10-16T07:11:03;1.73;;;1.63;;
6723;SDS011;3399;52.530;13.304;2022-10-16T07:13:34;2.60;;;1.90;;
6723;SDS011;3399;52.530;13.304;2022-10-16T07:16:21;5.80;;;2.17;;
6723;SDS011;3399;52.530;13.304;2022-10-16T07:18:48;2.00;;;1.90;;
6723;SDS011;3399;52.530;13.304;2022-10-16T07:21:17;2.57;;;2.23;;
6723;SDS011;3399;52.530;13.304;2022-10-16T07:23:50;3.47;;;2.67;;
6723;SDS011;3399;52.530;13.304;2022-10-16T07:26:20;2.73;;;2.23;;
6723;SDS011;3399;52.530;13.304;2022-10-16T07:28:46;2.63;;;2.30;;
6723;SDS011;3399;52.530;13.304;2022-10-16T07:31:12;2.07;;;1.87;;
6723;SDS011;3399;52.530;13.304;2022-10-16T07:33:39;2.30;;;2.10;;
6723;SDS011;3399;52.530;13.304;2022-10-16T07:36:07;1.93;;;1.83;;
6723;SDS011;3399;52.530;13.304;2022-10-16T07:38:33;1.60;;;1.40;;
6723;SDS011;3399;52.530;13.304;2022-10-16T07:41:02;1.67;;;1.57;;
6723;SDS011;3399;52.530;13.304;2022-10-16T07:43:30;2.17;;;2.03;;
6723;SDS011;3399;52.530;13.304;2022-10-16T07:45:56;1.70;;;1.60;;
6723;SDS011;3399;52.530;13.304;2022-10-16T07:48:22;2.03;;;1.80;;
6723;SDS011;3399;52.530;13.304;2022-10-16T07:50:48;2.03;;;1.70;;
6723;SDS011;3399;52.530;13.304;2022-10-16T07:53:14;1.77;;;1.63;;
6723;SDS011;3399;52.530;13.304;2022-10-16T07:55:40;1.20;;;1.20;;
6723;SDS011;3399;52.530;13.304;2022-10-16T07:58:05;1.10;;;1.10;;
6723;SDS011;3399;52.530;13.304;2022-10-16T08:00:31;1.60;;;1.50;;
6723;SDS011;3399;52.530;13.304;2022-10-16T08:02:57;1.00;;;1.00;;
6723;SDS011;3399;52.530;13.304;2022-10-16T08:05:25;3.10;;;1.70;;
6723;SDS011;3399;52.530;13.304;2022-10-16T08:07:55;1.20;;;1.10;;
6723;SDS011;3399;52.530;13.304;2022-10-16T08:10:21;2.03;;;1.57;;
6723;SDS011;3399;52.530;13.304;2022-10-16T08:12:48;1.80;;;1.70;;
6723;SDS011;3399;52.530;13.304;2022-10-16T08:15:13;2.03;;;1.33;;
6723;SDS011;3399;52.530;13.304;2022-10-16T08:17:39;1.33;;;1.23;;
6723;SDS011;3399;52.530;13.304;2022-10-16T08:20:05;1.77;;;1.67;;
6723;SDS011;3399;52.530;13.304;2022-10-16T08:22:31;1.80;;;1.37;;
6723;SDS011;3399;52.530;13.304;2022-10-16T08:24:56;2.13;;;1.47;;
6723;SDS011;3399;52.530;13.304;2022-10-16T08:27:22;1.50;;;1.40;;
6723;SDS011;3399;52.530;13.304;2022-10-16T08:29:48;1.10;;;1.10;;
6723;SDS011;3399;52.530;13.304;2022-10-16T08:32:14;1.47;;;1.37;;
6723;SDS011;3399;52.530;13.304;2022-10-16T08:34:39;1.60;;;1.50;;
6723;SDS011;3399;52.530;13.304;2022-10-16T08:37:05;1.30;;;1.20;;
6723;SDS011;3399;52.530;13.304;2022-10-16T08:39:32;1.50;;;1.40;;
6723;SDS011;3399;52.530;13.304;2022-10-16T08:42:16;2.37;;;1.50;;
6723;SDS011;3399;52.530;13.304;2022-10-16T08:47:46;1.13;;;1.13;;
6723;SDS011;3399;52.530;13.304;2022-10-16T08:50:32;1.80;;;1.57;;
6723;SDS011;3399;52.530;13.304;2022-10-16T08:53:01;2.10;;;1.37;;
6723;SDS011;3399;52.530;13.304;2022-10-16T08:55:46;1.50;;;1.40;;
6723;SDS011;3399;52.530;13.304;2022-10-16T08:58:16;1.53;;;1.30;;
6723;SDS011;3399;52.530;13.304;2022-10-16T09:00:45;1.47;;;1.37;;
6723;SDS011;3399;52.530;13.304;2022-10-16T09:03:17;1.60;;;1.50;;
6723;SDS011;3399;52.530;13.304;2022-10-16T09:11:20;1.30;;;1.20;;
6723;SDS011;3399;52.530;13.304;2022-10-16T09:13:55;1.27;;;1.17;;
6723;SDS011;3399;52.530;13.304;2022-10-16T09:17:03;1.07;;;1.07;;
6723;SDS011;3399;52.530;13.304;2022-10-16T09:19:27;2.50;;;1.10;;
6723;SDS011;3399;52.530;13.304;2022-10-16T09:22:02;1.00;;;1.00;;
6723;SDS011;3399;52.530;13.304;2022-10-16T09:24:37;3.37;;;1.50;;
6723;SDS011;3399;52.530;13.304;2022-10-16T09:27:02;1.53;;;1.10;;
6723;SDS011;3399;52.530;13.304;2022-10-16T09:29:28;1.20;;;1.10;;
6723;SDS011;3399;52.530;13.304;2022-10-16T09:31:54;5.47;;;1.50;;
6723;SDS011;3399;52.530;13.304;2022-10-16T09:34:28;1.27;;;1.20;;
6723;SDS011;3399;52.530;13.304;2022-10-16T09:36:57;1.53;;;1.43;;
6723;SDS011;3399;52.530;13.304;2022-10-16T09:39:25;0.90;;;0.90;;
6723;SDS011;3399;52.530;13.304;2022-10-16T09:41:50;1.63;;;1.07;;
6723;SDS011;3399;52.530;13.304;2022-10-16T09:44:23;1.90;;;1.00;;
6723;SDS011;3399;52.530;13.304;2022-10-16T09:47:04;1.90;;;1.07;;
6723;SDS011;3399;52.530;13.304;2022-10-16T09:49:31;1.30;;;1.10;;
6723;SDS011;3399;52.530;13.304;2022-10-16T09:52:06;1.20;;;1.20;;
6723;SDS011;3399;52.530;13.304;2022-10-16T09:54:37;0.90;;;0.90;;
6723;SDS011;3399;52.530;13.304;2022-10-16T09:57:13;1.23;;;1.10;;
6723;SDS011;3399;52.530;13.304;2022-10-16T09:59:45;1.00;;;1.00;;
6723;SDS011;3399;52.530;13.304;2022-10-16T10:02:12;3.00;;;1.27;;
6723;SDS011;3399;52.530;13.304;2022-10-16T10:04:41;0.80;;;0.80;;
6723;SDS011;3399;52.530;13.304;2022-10-16T10:07:19;1.70;;;1.27;;
6723;SDS011;3399;52.530;13.304;2022-10-16T10:09:50;1.03;;;0.90;;
6723;SDS011;3399;52.530;13.304;2022-10-16T10:12:17;3.33;;;1.10;;
6723;SDS011;3399;52.530;13.304;2022-10-16T10:14:49;1.03;;;1.03;;
6723;SDS011;3399;52.530;13.304;2022-10-16T10:17:18;1.60;;;0.87;;
6723;SDS011;3399;52.530;13.304;2022-10-16T10:19:52;1.00;;;0.93;;
6723;SDS011;3399;52.530;13.304;2022-10-16T10:22:45;1.00;;;0.90;;
6723;SDS011;3399;52.530;13.304;2022-10-16T10:27:49;1.20;;;1.10;;
6723;SDS011;3399;52.530;13.304;2022-10-16T10:36:37;1.50;;;1.20;;
6723;SDS011;3399;52.530;13.304;2022-10-16T10:39:18;1.77;;;1.67;;
6723;SDS011;3399;52.530;13.304;2022-10-16T10:41:52;1.60;;;1.10;;
6723;SDS011;3399;52.530;13.304;2022-10-16T10:47:45;0.90;;;0.90;;
6723;SDS011;3399;52.530;13.304;2022-10-16T10:50:23;1.03;;;0.93;;
6723;SDS011;3399;52.530;13.304;2022-10-16T10:56:00;0.97;;;0.97;;
6723;SDS011;3399;52.530;13.304;2022-10-16T10:58:49;1.47;;;1.30;;
6723;SDS011;3399;52.530;13.304;2022-10-16T11:01:41;1.97;;;0.80;;
6723;SDS011;3399;52.530;13.304;2022-10-16T11:07:05;0.80;;;0.80;;
6723;SDS011;3399;52.530;13.304;2022-10-16T11:09:49;4.00;;;0.80;;
6723;SDS011;3399;52.530;13.304;2022-10-16T11:12:19;0.90;;;0.90;;
6723;SDS011;3399;52.530;13.304;2022-10-16T11:14:56;1.80;;;1.00;;
6723;SDS011;3399;52.530;13.304;2022-10-16T11:17:29;1.00;;;0.90;;
6723;SDS011;3399;52.530;13.304;2022-10-16T11:20:13;0.83;;;0.83;;
6723;SDS011;3399;52.530;13.304;2022-10-16T11:22:50;1.47;;;1.07;;
6723;SDS011;3399;52.530;13.304;2022-10-16T11:25:27;1.40;;;1.07;;
6723;SDS011;3399;52.530;13.304;2022-10-16T11:30:34;1.00;;;0.90;;
6723;SDS011;3399;52.530;13.304;2022-10-16T11:33:25;0.70;;;0.67;;
6723;SDS011;3399;52.530;13.304;2022-10-16T11:38:43;0.97;;;0.97;;
6723;SDS011;3399;52.530;13.304;2022-10-16T11:41:27;1.80;;;0.90;;
6723;SDS011;3399;52.530;13.304;2022-10-16T11:44:03;1.07;;;1.07;;
6723;SDS011;3399;52.530;13.304;2022-10-16T11:46:35;0.77;;;0.77;;
6723;SDS011;3399;52.530;13.304;2022-10-16T11:49:06;2.07;;;1.03;;
6723;SDS011;3399;52.530;13.304;2022-10-16T11:51:38;1.43;;;1.33;;
6723;SDS011;3399;52.530;13.304;2022-10-16T11:54:28;1.97;;;1.23;;
6723;SDS011;3399;52.530;13.304;2022-10-16T11:57:08;0.80;;;0.80;;
6723;SDS011;3399;52.530;13.304;2022-10-16T11:59:42;1.83;;;0.80;;
6723;SDS011;3399;52.530;13.304;2022-10-16T12:05:59;1.03;;;0.77;;
6723;SDS011;3399;52.530;13.304;2022-10-16T12:08:44;1.10;;;0.80;;
6723;SDS011;3399;52.530;13.304;2022-10-16T12:13:51;1.00;;;1.00;;
6723;SDS011;3399;52.530;13.304;2022-10-16T12:16:28;0.70;;;0.70;;
6723;SDS011;3399;52.530;13.304;2022-10-16T12:19:08;0.60;;;0.60;;
6723;SDS011;3399;52.530;13.304;2022-10-16T12:21:35;0.60;;;0.60;;
6723;SDS011;3399;52.530;13.304;2022-10-16T12:24:02;0.60;;;0.60;;
6723;SDS011;3399;52.530;13.304;2022-10-16T12:26:33;0.77;;;0.77;;
6723;SDS011;3399;52.530;13.304;2022-10-16T12:31:51;1.73;;;0.80;;
6723;SDS011;3399;52.530;13.304;2022-10-16T12:34:21;1.57;;;1.00;;
6723;SDS011;3399;52.530;13.304;2022-10-16T12:36:53;1.30;;;0.80;;
6723;SDS011;3399;52.530;13.304;2022-10-16T12:39:22;0.60;;;0.60;;
6723;SDS011;3399;52.530;13.304;2022-10-16T12:42:03;2.57;;;0.47;;
6723;SDS011;3399;52.530;13.304;2022-10-16T12:44:34;0.90;;;0.50;;
6723;SDS011;3399;52.530;13.304;2022-10-16T12:47:01;0.73;;;0.73;;
6723;SDS011;3399;52.530;13.304;2022-10-16T12:51:53;2.05;;;0.82;;
6723;SDS011;3399;52.530;13.304;2022-10-16T13:02:56;1.08;;;0.70;;
6723;SDS011;3399;52.530;13.304;2022-10-16T13:08:26;0.85;;;0.85;;
6723;SDS011;3399;52.530;13.304;2022-10-16T13:11:05;1.00;;;0.80;;
6723;SDS011;3399;52.530;13.304;2022-10-16T13:13:46;1.15;;;0.60;;
6723;SDS011;3399;52.530;13.304;2022-10-16T13:16:38;0.63;;;0.63;;
6723;SDS011;3399;52.530;13.304;2022-10-16T13:19:30;1.05;;;0.70;;
6723;SDS011;3399;52.530;13.304;2022-10-16T13:27:45;0.65;;;0.55;;
6723;SDS011;3399;52.530;13.304;2022-10-16T13:30:21;0.70;;;0.40;;
6723;SDS011;3399;52.530;13.304;2022-10-16T13:32:50;1.58;;;0.45;;
6723;SDS011;3399;52.530;13.304;2022-10-16T13:35:26;1.45;;;0.70;;
6723;SDS011;3399;52.530;13.304;2022-10-16T13:40:55;1.10;;;0.50;;
6723;SDS011;3399;52.530;13.304;2022-10-16T13:43:32;2.85;;;0.60;;
6723;SDS011;3399;52.530;13.304;2022-10-16T13:46:03;0.88;;;0.88;;
6723;SDS011;3399;52.530;13.304;2022-10-16T13:48:36;4.90;;;0.85;;
6723;SDS011;3399;52.530;13.304;2022-10-16T13:51:15;1.60;;;0.63;;
6723;SDS011;3399;52.530;13.304;2022-10-16T13:53:43;0.85;;;0.40;;
6723;SDS011;3399;52.530;13.304;2022-10-16T13:56:14;0.85;;;0.50;;
6723;SDS011;3399;52.530;13.304;2022-10-16T13:58:41;1.02;;;0.50;;
6723;SDS011;3399;52.530;13.304;2022-10-16T14:01:17;2.05;;;0.68;;
6723;SDS011;3399;52.530;13.304;2022-10-16T14:03:45;0.50;;;0.50;;
6723;SDS011;3399;52.530;13.304;2022-10-16T14:06:15;0.60;;;0.60;;
6723;SDS011;3399;52.530;13.304;2022-10-16T14:08:44;0.75;;;0.60;;
6723;SDS011;3399;52.530;13.304;2022-10-16T14:11:19;1.55;;;0.70;;
6723;SDS011;3399;52.530;13.304;2022-10-16T14:13:47;1.08;;;0.60;;
6723;SDS011;3399;52.530;13.304;2022-10-16T14:16:16;0.60;;;0.50;;
6723;SDS011;3399;52.530;13.304;2022-10-16T14:18:45;1.58;;;0.43;;
6723;SDS011;3399;52.530;13.304;2022-10-16T14:21:17;2.25;;;0.77;;
6723;SDS011;3399;52.530;13.304;2022-10-16T14:23:43;0.47;;;0.47;;
6723;SDS011;3399;52.530;13.304;2022-10-16T14:28:35;0.60;;;0.60;;
6723;SDS011;3399;52.530;13.304;2022-10-16T14:31:02;1.83;;;0.80;;
6723;SDS011;3399;52.530;13.304;2022-10-16T14:33:44;0.67;;;0.67;;
6723;SDS011;3399;52.530;13.304;2022-10-16T14:38:35;1.43;;;0.70;;
6723;SDS011;3399;52.530;13.304;2022-10-16T14:41:03;1.27;;;1.07;;
6723;SDS011;3399;52.530;13.304;2022-10-16T14:43:31;0.73;;;0.63;;
6723;SDS011;3399;52.530;13.304;2022-10-16T14:45:59;1.83;;;0.60;;
6723;SDS011;3399;52.530;13.304;2022-10-16T14:48:26;0.70;;;0.70;;
6723;SDS011;3399;52.530;13.304;2022-10-16T14:50:52;2.27;;;0.70;;
6723;SDS011;3399;52.530;13.304;2022-10-16T14:53:17;1.30;;;0.73;;
6723;SDS011;3399;52.530;13.304;2022-10-16T14:55:43;1.70;;;1.00;;
6723;SDS011;3399;52.530;13.304;2022-10-16T14:58:11;0.60;;;0.60;;
6723;SDS011;3399;52.530;13.304;2022-10-16T15:00:47;0.60;;;0.60;;
6723;SDS011;3399;52.530;13.304;2022-10-16T15:03:13;0.83;;;0.83;;
6723;SDS011;3399;52.530;13.304;2022-10-16T15:05:39;0.53;;;0.53;;
6723;SDS011;3399;52.530;13.304;2022-10-16T15:08:04;1.13;;;0.60;;
6723;SDS011;3399;52.530;13.304;2022-10-16T15:10:30;1.47;;;0.50;;
6723;SDS011;3399;52.530;13.304;2022-10-16T15:12:58;0.60;;;0.60;;
6723;SDS011;3399;52.530;13.304;2022-10-16T15:17:53;0.70;;;0.70;;
6723;SDS011;3399;52.530;13.304;2022-10-16T15:20:24;1.87;;;0.80;;
6723;SDS011;3399;52.530;13.304;2022-10-16T15:22:50;2.77;;;0.90;;
6723;SDS011;3399;52.530;13.304;2022-10-16T15:27:56;0.60;;;0.60;;
6723;SDS011;3399;52.530;13.304;2022-10-16T15:30:22;1.03;;;0.70;;
6723;SDS011;3399;52.530;13.304;2022-10-16T15:32:47;0.40;;;0.40;;
6723;SDS011;3399;52.530;13.304;2022-10-16T15:35:13;0.73;;;0.70;;
6723;SDS011;3399;52.530;13.304;2022-10-16T15:37:38;1.03;;;0.80;;
6723;SDS011;3399;52.530;13.304;2022-10-16T15:40:04;1.97;;;0.90;;
6723;SDS011;3399;52.530;13.304;2022-10-16T15:42:30;0.83;;;0.60;;
6723;SDS011;3399;52.530;13.304;2022-10-16T15:44:56;2.37;;;0.60;;
6723;SDS011;3399;52.530;13.304;2022-10-16T15:47:21;1.00;;;1.00;;
6723;SDS011;3399;52.530;13.304;2022-10-16T15:49:47;1.33;;;0.70;;
6723;SDS011;3399;52.530;13.304;2022-10-16T15:52:12;1.03;;;0.60;;
6723;SDS011;3399;52.530;13.304;2022-10-16T15:54:37;3.40;;;0.93;;
6723;SDS011;3399;52.530;13.304;2022-10-16T15:57:03;1.33;;;0.93;;
6723;SDS011;3399;52.530;13.304;2022-10-16T15:59:28;1.43;;;0.90;;
6723;SDS011;3399;52.530;13.304;2022-10-16T16:01:55;1.03;;;0.80;;
6723;SDS011;3399;52.530;13.304;2022-10-16T16:04:20;1.63;;;0.90;;
6723;SDS011;3399;52.530;13.304;2022-10-16T16:06:46;0.70;;;0.70;;
6723;SDS011;3399;52.530;13.304;2022-10-16T16:09:12;2.00;;;0.80;;
6723;SDS011;3399;52.530;13.304;2022-10-16T16:11:38;1.07;;;0.87;;
6723;SDS011;3399;52.530;13.304;2022-10-16T16:14:05;0.80;;;0.80;;
6723;SDS011;3399;52.530;13.304;2022-10-16T16:16:31;0.90;;;0.90;;
6723;SDS011;3399;52.530;13.304;2022-10-16T16:19:01;2.27;;;1.13;;
6723;SDS011;3399;52.530;13.304;2022-10-16T16:21:28;1.03;;;1.00;;
6723;SDS011;3399;52.530;13.304;2022-10-16T16:23:54;2.70;;;0.87;;
6723;SDS011;3399;52.530;13.304;2022-10-16T16:26:26;2.63;;;1.23;;
6723;SDS011;3399;52.530;13.304;2022-10-16T16:28:57;1.30;;;1.13;;
6723;SDS011;3399;52.530;13.304;2022-10-16T16:31:23;0.93;;;0.93;;
6723;SDS011;3399;52.530;13.304;2022-10-16T16:33:51;1.30;;;1.20;;
6723;SDS011;3399;52.530;13.304;2022-10-16T16:36:17;1.10;;;1.00;;
6723;SDS011;3399;52.530;13.304;2022-10-16T16:38:43;0.73;;;0.73;;
6723;SDS011;3399;52.530;13.304;2022-10-16T16:43:39;0.93;;;0.93;;
6723;SDS011;3399;52.530;13.304;2022-10-16T16:46:04;2.30;;;1.23;;